Kota Waris — S6RJ — position and weather

sailwx.info

Track history (hours):
 
Tides and Currents Weather Stations Pressure Air Temp Water Temp Dewpoint Dewpoint Depression Visibility Wind Speed Wind Dir Waves Ship Positions

Kota Waris

Last reported at 2018-Apr-24 20:58 UTC. Time now 2018-Apr-24 21:15 UTC.
Position N 01°16' E 103°50'.

Length 185 m; draft 8.5 m.

Type: Cargo ship. MMSI: 564482000.

Date/timePositionNaut miles runAvg speedWind from/ knotsBaromVisibWave heightAir tempDewpointWater temp
2018-Apr-24 20:58N 01°16' E 103°50'0 0.1
2018-Apr-24 20:28N 01°16' E 103°50'0 0.1
2018-Apr-24 19:57N 01°16' E 103°50'0 0.0
2018-Apr-24 19:25N 01°16' E 103°50'0 0.0
2018-Apr-24 18:58N 01°16' E 103°50'0 0.0
2018-Apr-24 18:17N 01°16' E 103°50'0 0.7
2018-Apr-24 18:00N 01°16' E 103°50'2 3.7
2018-Apr-24 17:30N 01°15' E 103°52'3 6.3
2018-Apr-24 17:00N 01°14' E 103°55'3 6.5
2018-Apr-24 16:30N 01°15' E 103°58'4 7.6
2018-Apr-24 15:59N 01°16' E 104°02'510.9
2018-Apr-24 15:30N 01°16' E 104°07'610.1
2018-Apr-24 14:56N 01°17' E 104°13'612.4
2018-Apr-24 14:28N 01°18' E 104°18'612.6
2018-Apr-24 13:59N 01°22' E 104°23'814.5
2018-Apr-24 13:27N 01°26' E 104°29'  
2018-Apr-18 10:34N 01°15' E 104°03'112.5
2018-Apr-18 10:27N 01°15' E 104°01'612.3
2018-Apr-18 10:00N 01°14' E 103°56'4 7.5
2018-Apr-18 09:30N 01°14' E 103°52'3 4.8
2018-Apr-18 08:57N 01°16' E 103°50'0 0.0
2018-Apr-18 08:30N 01°16' E 103°50'0 0.0
2018-Apr-18 07:57N 01°16' E 103°50'0 0.0
2018-Apr-18 07:27N 01°16' E 103°50'0 0.0
2018-Apr-18 06:57N 01°16' E 103°50'0 0.0
2018-Apr-18 06:27N 01°16' E 103°50'0 0.0
2018-Apr-18 05:57N 01°16' E 103°50'0 0.0
2018-Apr-18 05:27N 01°16' E 103°50'0 0.0
2018-Apr-18 04:54N 01°16' E 103°50'0 0.0
2018-Apr-18 04:30N 01°16' E 103°50'0 0.0
2018-Apr-18 03:57N 01°16' E 103°50'0 0.0
2018-Apr-18 03:30N 01°16' E 103°50'0 0.0
2018-Apr-18 02:42N 01°16' E 103°50'0 0.0
2018-Apr-18 02:21N 01°16' E 103°50'0 0.0
2018-Apr-18 01:57N 01°16' E 103°50'0 0.0
2018-Apr-18 01:30N 01°16' E 103°50'0 0.0
2018-Apr-18 01:00N 01°16' E 103°50'0 0.0
2018-Apr-18 00:30N 01°16' E 103°50'0 0.0
2018-Apr-17 23:57N 01°16' E 103°50'0 0.0
2018-Apr-17 23:21N 01°16' E 103°50'0 0.0
2018-Apr-17 22:57N 01°16' E 103°50'0 0.0
2018-Apr-17 22:27N 01°16' E 103°50'0 0.0
2018-Apr-17 22:00N 01°16' E 103°50'0 0.0
2018-Apr-17 21:30N 01°16' E 103°50'0 0.0
2018-Apr-17 20:54N 01°16' E 103°50'0 0.0
2018-Apr-17 20:30N 01°16' E 103°50'0 0.0
2018-Apr-17 19:51N 01°16' E 103°50'0 0.0
2018-Apr-17 19:30N 01°16' E 103°50'0 0.0
2018-Apr-17 18:57N 01°16' E 103°50'0 0.0
2018-Apr-17 18:27N 01°16' E 103°50'0 0.0
2018-Apr-17 18:00N 01°16' E 103°50'0 0.0
2018-Apr-17 17:27N 01°16' E 103°50'0 0.0
2018-Apr-17 16:54N 01°16' E 103°50'0 0.0
2018-Apr-17 16:21N 01°16' E 103°50'0 0.0
2018-Apr-17 16:00N 01°16' E 103°50'0 0.0
2018-Apr-17 15:30N 01°16' E 103°50'0 0.0
2018-Apr-17 14:57N 01°16' E 103°50'0 0.0
2018-Apr-17 14:30N 01°16' E 103°50'0 0.0
2018-Apr-17 13:46N 01°16' E 103°50'0 1.4
2018-Apr-17 13:30N 01°16' E 103°50'2 3.8
2018-Apr-17 12:58N 01°15' E 103°52'2 4.9
2018-Apr-17 12:30N 01°14' E 103°54'1 2.1
2018-Apr-17 12:00N 01°14' E 103°55'4 7.9
2018-Apr-17 11:30N 01°15' E 103°59'4 7.8
2018-Apr-17 10:58N 01°16' E 104°03'510.4
2018-Apr-17 10:30N 01°16' E 104°08'  
Track history (hours):
 
Tides and Currents Weather Stations Pressure Air Temp Water Temp Dewpoint Dewpoint Depression Visibility Wind Speed Wind Dir Waves Ship Positions

Kota Waris

Last reported at 2018-Apr-24 20:58 UTC. Time now 2018-Apr-24 21:15 UTC.
Position N 01°16' E 103°50'.

Length 185 m; draft 8.5 m.

Type: Cargo ship. MMSI: 564482000.

Date/timePositionNaut miles runAvg speedWind from/ knotsBaromVisibWave heightAir tempDewpointWater temp
2018-Apr-24 20:58N 01°16' E 103°50'0 0.1
2018-Apr-24 20:28N 01°16' E 103°50'0 0.1
2018-Apr-24 19:57N 01°16' E 103°50'0 0.0
2018-Apr-24 19:25N 01°16' E 103°50'0 0.0
2018-Apr-24 18:58N 01°16' E 103°50'0 0.0
2018-Apr-24 18:17N 01°16' E 103°50'0 0.7
2018-Apr-24 18:00N 01°16' E 103°50'2 3.7
2018-Apr-24 17:30N 01°15' E 103°52'3 6.3
2018-Apr-24 17:00N 01°14' E 103°55'3 6.5
2018-Apr-24 16:30N 01°15' E 103°58'4 7.6
2018-Apr-24 15:59N 01°16' E 104°02'510.9
2018-Apr-24 15:30N 01°16' E 104°07'610.1
2018-Apr-24 14:56N 01°17' E 104°13'612.4
2018-Apr-24 14:28N 01°18' E 104°18'612.6
2018-Apr-24 13:59N 01°22' E 104°23'814.5
2018-Apr-24 13:27N 01°26' E 104°29'  
2018-Apr-18 10:34N 01°15' E 104°03'112.5
2018-Apr-18 10:27N 01°15' E 104°01'612.3
2018-Apr-18 10:00N 01°14' E 103°56'4 7.5
2018-Apr-18 09:30N 01°14' E 103°52'3 4.8
2018-Apr-18 08:57N 01°16' E 103°50'0 0.0
2018-Apr-18 08:30N 01°16' E 103°50'0 0.0
2018-Apr-18 07:57N 01°16' E 103°50'0 0.0
2018-Apr-18 07:27N 01°16' E 103°50'0 0.0
2018-Apr-18 06:57N 01°16' E 103°50'0 0.0
2018-Apr-18 06:27N 01°16' E 103°50'0 0.0
2018-Apr-18 05:57N 01°16' E 103°50'0 0.0
2018-Apr-18 05:27N 01°16' E 103°50'0 0.0
2018-Apr-18 04:54N 01°16' E 103°50'0 0.0
2018-Apr-18 04:30N 01°16' E 103°50'0 0.0
2018-Apr-18 03:57N 01°16' E 103°50'0 0.0
2018-Apr-18 03:30N 01°16' E 103°50'0 0.0
2018-Apr-18 02:42N 01°16' E 103°50'0 0.0
2018-Apr-18 02:21N 01°16' E 103°50'0 0.0
2018-Apr-18 01:57N 01°16' E 103°50'0 0.0
2018-Apr-18 01:30N 01°16' E 103°50'0 0.0
2018-Apr-18 01:00N 01°16' E 103°50'0 0.0
2018-Apr-18 00:30N 01°16' E 103°50'0 0.0
2018-Apr-17 23:57N 01°16' E 103°50'0 0.0
2018-Apr-17 23:21N 01°16' E 103°50'0 0.0
2018-Apr-17 22:57N 01°16' E 103°50'0 0.0
2018-Apr-17 22:27N 01°16' E 103°50'0 0.0
2018-Apr-17 22:00N 01°16' E 103°50'0 0.0
2018-Apr-17 21:30N 01°16' E 103°50'0 0.0
2018-Apr-17 20:54N 01°16' E 103°50'0 0.0
2018-Apr-17 20:30N 01°16' E 103°50'0 0.0
2018-Apr-17 19:51N 01°16' E 103°50'0 0.0
2018-Apr-17 19:30N 01°16' E 103°50'0 0.0
2018-Apr-17 18:57N 01°16' E 103°50'0 0.0
2018-Apr-17 18:27N 01°16' E 103°50'0 0.0
2018-Apr-17 18:00N 01°16' E 103°50'0 0.0
2018-Apr-17 17:27N 01°16' E 103°50'0 0.0
2018-Apr-17 16:54N 01°16' E 103°50'0 0.0
2018-Apr-17 16:21N 01°16' E 103°50'0 0.0
2018-Apr-17 16:00N 01°16' E 103°50'0 0.0
2018-Apr-17 15:30N 01°16' E 103°50'0 0.0
2018-Apr-17 14:57N 01°16' E 103°50'0 0.0
2018-Apr-17 14:30N 01°16' E 103°50'0 0.0
2018-Apr-17 13:46N 01°16' E 103°50'0 1.4
2018-Apr-17 13:30N 01°16' E 103°50'2 3.8
2018-Apr-17 12:58N 01°15' E 103°52'2 4.9
2018-Apr-17 12:30N 01°14' E 103°54'1 2.1
2018-Apr-17 12:00N 01°14' E 103°55'4 7.9
2018-Apr-17 11:30N 01°15' E 103°59'4 7.8
2018-Apr-17 10:58N 01°16' E 104°03'510.4
2018-Apr-17 10:30N 01°16' E 104°08'  

Dump ship's entire track history